Time;durP1;ratioP1;P1;durP2;ratioP2;P2;SDS_P1;SDS_P2;PMS_P1;PMS_P2;Temp;Humidity;BMP_temperature;BMP_pressure;BME280_temperature;BME280_humidity;BME280_pressure;Samples;Min_cycle;Max_cycle;Signal;HPM_P1;HPM_P2
2021/07/15 00:00:36;;;;;;;44.33;18.07;;;16.90;99.90;;;;;;5079120;28;20192;-67
2021/07/15 00:03:06;;;;;;;32.87;16.67;;;17.00;99.90;;;;;;5079629;28;20189;-66
2021/07/15 00:05:36;;;;;;;39.83;17.73;;;17.00;99.90;;;;;;5076917;28;20221;-66
2021/07/15 00:08:10;;;;;;;42.10;18.10;;;17.00;99.90;;;;;;5076691;28;20191;-67
2021/07/15 00:10:41;;;;;;;42.77;18.07;;;16.90;99.90;;;;;;5073514;28;20258;-66
2021/07/15 00:13:11;;;;;;;47.17;18.83;;;16.90;99.90;;;;;;5072358;28;20176;-66
2021/07/15 00:15:43;;;;;;;42.70;17.97;;;16.90;99.90;;;;;;5058376;28;20430;-67
2021/07/15 00:18:13;;;;;;;37.37;17.77;;;16.90;99.90;;;;;;5075484;28;20248;-67
2021/07/15 00:20:47;;;;;;;41.37;18.70;;;16.90;99.90;;;;;;5076444;28;20194;-66
2021/07/15 00:23:17;;;;;;;38.10;17.67;;;16.90;99.90;;;;;;5074569;28;20250;-66
2021/07/15 00:25:47;;;;;;;39.77;17.97;;;17.00;99.90;;;;;;5075456;28;20214;-66
2021/07/15 00:28:17;;;;;;;49.80;18.97;;;17.00;99.90;;;;;;5074573;28;20506;-66
2021/07/15 00:30:46;;;;;;;37.10;17.53;;;17.00;99.90;;;;;;5075469;28;20255;-67
2021/07/15 00:33:15;;;;;;;39.37;17.93;;;17.00;99.90;;;;;;5076798;28;20220;-66
2021/07/15 00:35:43;;;;;;;31.23;17.10;;;17.00;99.90;;;;;;5076592;28;20196;-67
2021/07/15 00:38:12;;;;;;;36.30;17.10;;;17.00;99.90;;;;;;5075132;28;20422;-67
2021/07/15 00:40:42;;;;;;;39.93;17.30;;;17.00;99.90;;;;;;5073023;28;20184;-66
2021/07/15 00:43:10;;;;;;;29.13;17.83;;;17.00;99.90;;;;;;5076781;28;20393;-66
2021/07/15 00:45:38;;;;;;;33.10;17.90;;;17.00;99.90;;;;;;5077012;28;20303;-66
2021/07/15 00:48:07;;;;;;;48.13;19.03;;;17.00;99.90;;;;;;5075326;28;20225;-66
2021/07/15 00:50:36;;;;;;;43.53;19.73;;;17.00;99.90;;;;;;5075011;28;20226;-65
2021/07/15 00:53:05;;;;;;;40.07;19.43;;;17.00;99.90;;;;;;5074626;28;20194;-65
2021/07/15 00:55:37;;;;;;;46.27;20.70;;;17.00;99.90;;;;;;5074835;28;20199;-66
2021/07/15 00:58:09;;;;;;;44.97;21.23;;;17.00;99.90;;;;;;5076683;28;20197;-68
2021/07/15 01:00:39;;;;;;;51.77;21.27;;;17.00;99.90;;;;;;5073578;28;20195;-66
2021/07/15 01:03:09;;;;;;;37.17;20.37;;;17.00;99.90;;;;;;5066307;28;20189;-66
2021/07/15 01:05:40;;;;;;;43.73;20.20;;;17.00;99.90;;;;;;5074279;28;20343;-65
2021/07/15 01:08:09;;;;;;;37.50;19.73;;;17.00;99.90;;;;;;5072990;28;20187;-66
2021/07/15 01:10:40;;;;;;;39.17;18.83;;;17.00;99.90;;;;;;5076556;28;20216;-67
2021/07/15 01:13:18;;;;;;;38.90;18.70;;;17.00;99.90;;;;;;5054749;28;20589;-66
2021/07/15 01:15:56;;;;;;;46.60;18.53;;;17.00;99.90;;;;;;5076154;28;20255;-66
2021/07/15 01:18:37;;;;;;;37.90;17.87;;;17.00;99.90;;;;;;5067316;28;20331;-67
2021/07/15 01:21:54;;;;;;;39.67;18.73;;;17.00;99.90;;;;;;5075071;28;20178;-67
2021/07/15 01:25:30;;;;;;;39.30;17.77;;;17.00;99.90;;;;;;5072644;28;20211;-66
2021/07/15 01:28:08;;;;;;;36.27;16.77;;;17.00;99.90;;;;;;5073711;28;20359;-67
2021/07/15 01:30:43;;;;;;;41.13;18.20;;;17.00;99.90;;;;;;5074286;28;20211;-66
2021/07/15 01:33:17;;;;;;;49.47;18.80;;;17.00;99.90;;;;;;5073350;28;20231;-67
2021/07/15 01:35:49;;;;;;;42.20;18.53;;;17.00;99.90;;;;;;5075958;28;20247;-66
2021/07/15 01:38:20;;;;;;;45.77;18.43;;;17.00;99.90;;;;;;5075809;28;20186;-66
2021/07/15 01:40:55;;;;;;;44.83;18.77;;;17.00;99.90;;;;;;5073262;28;20196;-67
2021/07/15 01:43:30;;;;;;;37.37;17.67;;;17.00;99.90;;;;;;5076733;28;20180;-66
2021/07/15 01:46:00;;;;;;;49.10;17.57;;;17.00;99.90;;;;;;5074878;28;20405;-67
2021/07/15 01:48:30;;;;;;;43.87;18.37;;;17.00;99.90;;;;;;5075594;28;20199;-67
2021/07/15 01:50:59;;;;;;;50.87;18.60;;;17.00;99.90;;;;;;5073624;28;20422;-67
2021/07/15 01:53:28;;;;;;;41.73;17.83;;;17.00;99.90;;;;;;5074116;28;20193;-67
2021/07/15 01:56:00;;;;;;;43.03;18.67;;;17.00;99.90;;;;;;5073816;28;20188;-66
2021/07/15 01:58:31;;;;;;;36.37;17.73;;;17.00;99.90;;;;;;5072391;28;20189;-67
2021/07/15 02:01:02;;;;;;;35.90;18.47;;;16.90;99.90;;;;;;5089257;28;20221;-67
2021/07/15 02:03:34;;;;;;;49.23;18.67;;;17.00;99.90;;;;;;5074437;28;20215;-66
2021/07/15 02:06:04;;;;;;;51.20;18.77;;;17.00;99.90;;;;;;5074518;28;20438;-66
2021/07/15 02:08:34;;;;;;;41.93;17.27;;;17.00;99.90;;;;;;5074056;28;20192;-67
2021/07/15 02:11:03;;;;;;;45.47;18.33;;;17.00;99.90;;;;;;5061809;28;20481;-66
2021/07/15 02:13:32;;;;;;;48.67;18.67;;;17.00;99.90;;;;;;5074766;28;20199;-67
2021/07/15 02:16:02;;;;;;;45.73;18.07;;;17.00;99.90;;;;;;5070642;28;20198;-66
2021/07/15 02:18:31;;;;;;;43.43;18.83;;;17.00;99.90;;;;;;5073581;28;20260;-66
2021/07/15 02:21:01;;;;;;;43.53;18.97;;;17.00;99.90;;;;;;5073371;28;20430;-67
2021/07/15 02:23:30;;;;;;;46.70;19.60;;;17.00;99.90;;;;;;5072329;28;21066;-67
2021/07/15 02:25:59;;;;;;;42.13;19.33;;;17.00;99.90;;;;;;5074774;28;20221;-67
2021/07/15 02:28:29;;;;;;;48.67;20.60;;;16.90;99.90;;;;;;5072742;28;20204;-67
2021/07/15 02:31:05;;;;;;;49.23;20.00;;;17.00;99.90;;;;;;5070785;28;20194;-66
2021/07/15 02:33:36;;;;;;;52.87;21.03;;;17.00;99.90;;;;;;5075390;28;20353;-66
2021/07/15 02:36:05;;;;;;;45.97;19.37;;;17.00;99.90;;;;;;5071213;28;20222;-67
2021/07/15 02:38:36;;;;;;;47.67;19.83;;;16.90;99.90;;;;;;5074995;28;20220;-66
2021/07/15 02:41:05;;;;;;;40.20;19.50;;;16.90;99.90;;;;;;5072258;28;20243;-66
2021/07/15 02:43:33;;;;;;;51.67;21.47;;;16.90;99.90;;;;;;5074366;28;20194;-66
2021/07/15 02:46:03;;;;;;;47.93;21.33;;;16.90;99.90;;;;;;5072992;28;20217;-66
2021/07/15 02:48:31;;;;;;;49.80;22.30;;;16.90;99.90;;;;;;5062757;28;20199;-67
2021/07/15 02:50:59;;;;;;;49.00;19.33;;;16.90;99.90;;;;;;5072198;28;20244;-67
2021/07/15 02:53:28;;;;;;;47.13;21.10;;;16.90;99.90;;;;;;5072684;28;20375;-67
2021/07/15 02:56:14;;;;;;;50.33;21.40;;;16.90;99.90;;;;;;5073611;28;20324;-66
2021/07/15 02:58:57;;;;;;;40.43;21.03;;;16.90;99.90;;;;;;5076390;28;20179;-67
2021/07/15 03:01:30;;;;;;;46.00;20.77;;;16.90;99.90;;;;;;5076800;28;20225;-66
2021/07/15 03:04:04;;;;;;;41.17;20.77;;;16.90;99.90;;;;;;5076385;28;20417;-66
2021/07/15 03:06:36;;;;;;;44.93;21.80;;;16.90;99.90;;;;;;5077544;28;20244;-67
2021/07/15 03:09:09;;;;;;;50.13;20.93;;;16.80;99.90;;;;;;5077849;28;20204;-67
2021/07/15 03:11:44;;;;;;;49.50;19.97;;;16.80;99.90;;;;;;5077870;28;20562;-66
2021/07/15 03:14:14;;;;;;;49.73;20.53;;;16.80;99.90;;;;;;5077064;28;20514;-67
2021/07/15 03:16:45;;;;;;;38.83;19.87;;;16.80;99.90;;;;;;5078346;28;20355;-66
2021/07/15 03:19:17;;;;;;;42.73;20.43;;;16.80;99.90;;;;;;5077349;28;20234;-66
2021/07/15 03:21:46;;;;;;;45.47;19.63;;;16.80;99.90;;;;;;5077715;28;20194;-66
2021/07/15 03:24:16;;;;;;;54.73;21.67;;;16.80;99.90;;;;;;5074520;28;20238;-67
2021/07/15 03:26:47;;;;;;;55.67;22.33;;;16.80;99.90;;;;;;5075735;28;20479;-66
2021/07/15 03:29:16;;;;;;;47.33;21.70;;;16.80;99.90;;;;;;5074937;28;20671;-66
2021/07/15 03:31:47;;;;;;;57.80;23.00;;;16.70;99.90;;;;;;5076717;28;20275;-67
2021/07/15 03:34:17;;;;;;;53.63;21.43;;;16.80;99.90;;;;;;5074459;28;20217;-66
2021/07/15 03:36:50;;;;;;;41.63;20.97;;;16.80;99.90;;;;;;5079857;28;20191;-66
2021/07/15 03:39:20;;;;;;;54.30;22.10;;;16.80;99.90;;;;;;5076654;28;20489;-66
2021/07/15 03:41:49;;;;;;;46.00;21.57;;;16.80;99.90;;;;;;5076193;28;20416;-66
2021/07/15 03:44:20;;;;;;;46.20;21.57;;;16.80;99.90;;;;;;5075316;28;20192;-67
2021/07/15 03:46:53;;;;;;;48.43;23.70;;;16.80;99.90;;;;;;5075916;28;20229;-67
2021/07/15 03:49:25;;;;;;;48.70;22.77;;;16.80;99.90;;;;;;5073493;28;20444;-67
2021/07/15 03:51:54;;;;;;;49.07;23.20;;;16.80;99.90;;;;;;5075361;28;20440;-67
2021/07/15 03:54:24;;;;;;;51.40;23.63;;;16.80;99.90;;;;;;5075555;28;20357;-66
2021/07/15 03:56:54;;;;;;;52.43;23.80;;;16.70;99.90;;;;;;5077723;28;20180;-66
2021/07/15 03:59:22;;;;;;;51.00;25.20;;;16.70;99.90;;;;;;5072481;28;20201;-67
2021/07/15 04:02:01;;;;;;;49.47;24.20;;;16.80;99.90;;;;;;5077690;28;20263;-66
2021/07/15 04:04:32;;;;;;;50.17;25.70;;;16.70;99.90;;;;;;5076076;28;20204;-66
2021/07/15 04:07:03;;;;;;;48.43;25.43;;;16.70;99.90;;;;;;5073656;28;20356;-67
2021/07/15 04:09:35;;;;;;;53.13;25.60;;;16.70;99.90;;;;;;5076900;28;20190;-67
2021/07/15 04:12:04;;;;;;;52.33;25.83;;;16.80;99.90;;;;;;5072861;28;20707;-66
2021/07/15 04:15:03;;;;;;;47.37;24.27;;;16.80;99.90;;;;;;5077537;28;20254;-66
2021/07/15 04:17:37;;;;;;;56.37;24.60;;;16.80;99.90;;;;;;5074799;28;20175;-66
2021/07/15 04:20:09;;;;;;;47.87;23.87;;;16.80;99.90;;;;;;5076004;28;20205;-67
2021/07/15 04:22:39;;;;;;;46.47;23.50;;;16.80;99.90;;;;;;5077287;28;20193;-66
2021/07/15 04:25:11;;;;;;;50.13;23.40;;;16.80;99.90;;;;;;5074493;28;20236;-66
2021/07/15 04:27:43;;;;;;;58.73;24.90;;;16.80;99.90;;;;;;5074683;28;20217;-66
2021/07/15 04:30:15;;;;;;;48.63;23.53;;;16.80;99.90;;;;;;5072950;28;20185;-66
2021/07/15 04:32:49;;;;;;;46.93;24.63;;;16.80;99.90;;;;;;5075010;28;20239;-66
2021/07/15 04:35:18;;;;;;;53.03;24.00;;;16.80;99.90;;;;;;5074543;28;20192;-67
2021/07/15 04:37:48;;;;;;;47.53;23.40;;;16.80;99.90;;;;;;5076152;28;20201;-67
2021/07/15 04:40:19;;;;;;;51.90;24.50;;;16.80;99.90;;;;;;5076771;28;20405;-67
2021/07/15 04:42:50;;;;;;;46.40;24.67;;;16.80;99.90;;;;;;5076034;28;20468;-67
2021/07/15 04:45:23;;;;;;;42.97;23.33;;;16.80;99.90;;;;;;5075304;28;20180;-67
2021/07/15 04:47:54;;;;;;;48.37;22.17;;;16.80;99.90;;;;;;5075833;28;20257;-66
2021/07/15 04:50:27;;;;;;;45.97;20.73;;;16.80;99.90;;;;;;5074990;28;20191;-67
2021/07/15 04:52:58;;;;;;;37.90;19.00;;;16.80;99.90;;;;;;5071910;28;20210;-66
2021/07/15 04:55:27;;;;;;;32.00;18.10;;;16.80;99.90;;;;;;5075033;28;20450;-67
2021/07/15 04:58:00;;;;;;;32.97;18.03;;;16.80;99.90;;;;;;5077040;28;20223;-66
2021/07/15 05:00:29;;;;;;;34.57;17.57;;;16.80;99.90;;;;;;5075508;28;20195;-66
2021/07/15 05:03:02;;;;;;;36.10;18.60;;;16.80;99.90;;;;;;5076740;28;20216;-66
2021/07/15 05:05:30;;;;;;;39.03;20.00;;;16.80;99.90;;;;;;5077651;28;20388;-67
2021/07/15 05:07:58;;;;;;;42.50;22.40;;;16.80;99.90;;;;;;5078598;28;20200;-67
2021/07/15 05:10:27;;;;;;;50.00;22.43;;;16.80;99.90;;;;;;5075548;28;20334;-66
2021/07/15 05:12:56;;;;;;;45.90;21.37;;;16.80;99.90;;;;;;5074309;28;20185;-66
2021/07/15 05:15:24;;;;;;;46.10;21.30;;;16.80;99.90;;;;;;5074827;28;20204;-66
2021/07/15 05:17:53;;;;;;;47.17;20.40;;;16.90;99.90;;;;;;5073797;28;20181;-67
2021/07/15 05:20:23;;;;;;;35.53;17.97;;;16.80;99.90;;;;;;5073471;28;20379;-66
2021/07/15 05:22:51;;;;;;;34.87;17.70;;;16.90;99.90;;;;;;5075304;28;20207;-66
2021/07/15 05:25:19;;;;;;;36.23;16.90;;;16.90;99.90;;;;;;5075022;28;20194;-66
2021/07/15 05:27:48;;;;;;;40.33;16.43;;;16.90;99.90;;;;;;5074398;28;20208;-67
2021/07/15 05:30:17;;;;;;;34.20;16.33;;;16.90;99.90;;;;;;5064738;28;20236;-67
2021/07/15 05:32:46;;;;;;;29.70;15.73;;;16.90;99.90;;;;;;5073991;28;20468;-66
2021/07/15 05:35:14;;;;;;;31.27;14.80;;;16.90;99.90;;;;;;5071332;28;20288;-66
2021/07/15 05:37:45;;;;;;;38.73;14.97;;;16.90;99.90;;;;;;5071943;28;20210;-67
2021/07/15 05:40:15;;;;;;;30.60;14.63;;;16.90;99.90;;;;;;5075522;28;20249;-66
2021/07/15 05:42:43;;;;;;;32.60;15.60;;;16.90;99.90;;;;;;5074794;28;20183;-66
2021/07/15 05:45:11;;;;;;;32.63;16.90;;;16.90;99.90;;;;;;5077261;28;20204;-65
2021/07/15 05:47:40;;;;;;;34.63;17.30;;;16.90;99.90;;;;;;5072353;28;20212;-66
2021/07/15 05:50:09;;;;;;;35.97;18.50;;;16.90;99.90;;;;;;5070100;28;20346;-67
2021/07/15 05:52:40;;;;;;;43.10;18.10;;;16.90;99.90;;;;;;5077031;28;20186;-67
2021/07/15 05:55:13;;;;;;;34.53;17.53;;;16.90;99.90;;;;;;5073047;28;20186;-66
2021/07/15 05:57:42;;;;;;;40.90;19.57;;;17.00;99.90;;;;;;5074495;28;20183;-66
2021/07/15 06:00:12;;;;;;;48.57;22.43;;;17.00;99.90;;;;;;5074787;28;20186;-66
2021/07/15 06:02:41;;;;;;;50.73;24.27;;;17.00;99.90;;;;;;5045549;28;20193;-66
2021/07/15 06:05:25;;;;;;;53.87;24.60;;;16.90;99.90;;;;;;5072854;28;21015;-67
2021/07/15 06:07:54;;;;;;;49.63;24.57;;;16.90;99.90;;;;;;5073233;28;20234;-66
2021/07/15 06:10:24;;;;;;;48.33;24.50;;;16.90;99.90;;;;;;5073995;28;20193;-67
2021/07/15 06:12:52;;;;;;;41.53;22.87;;;16.90;99.90;;;;;;5071826;28;20184;-67
2021/07/15 06:15:21;;;;;;;44.40;22.73;;;16.90;99.90;;;;;;5072229;28;20188;-66
2021/07/15 06:17:49;;;;;;;46.70;22.73;;;16.90;99.90;;;;;;5070022;28;20430;-66
2021/07/15 06:20:18;;;;;;;47.00;22.83;;;16.90;99.90;;;;;;5069684;28;20183;-66
2021/07/15 06:22:46;;;;;;;46.90;23.03;;;16.90;99.90;;;;;;5073029;28;20186;-66
2021/07/15 06:25:16;;;;;;;50.63;23.63;;;16.90;99.90;;;;;;5073396;28;20211;-66
2021/07/15 06:27:46;;;;;;;46.33;23.00;;;16.90;99.90;;;;;;5077967;28;20200;-67
2021/07/15 06:30:17;;;;;;;57.70;25.10;;;17.00;99.90;;;;;;5072712;28;20190;-66
2021/07/15 06:32:46;;;;;;;48.37;23.77;;;16.90;99.90;;;;;;5067061;28;20193;-65
2021/07/15 06:35:17;;;;;;;47.13;23.43;;;16.90;99.90;;;;;;5069450;28;20274;-67
2021/07/15 06:37:50;;;;;;;45.60;22.47;;;17.00;99.90;;;;;;5074702;28;20376;-67
2021/07/15 06:40:19;;;;;;;45.23;22.20;;;17.00;99.90;;;;;;5077194;28;20235;-67
2021/07/15 06:42:50;;;;;;;41.33;21.33;;;17.00;99.90;;;;;;5077163;28;20207;-67
2021/07/15 06:45:18;;;;;;;52.97;21.50;;;17.00;99.90;;;;;;5077592;28;20183;-67
2021/07/15 06:47:47;;;;;;;41.00;20.30;;;17.00;99.90;;;;;;5076501;28;20209;-66
2021/07/15 06:50:17;;;;;;;49.83;20.83;;;17.00;99.90;;;;;;5078140;28;20312;-67
2021/07/15 06:52:47;;;;;;;36.83;19.50;;;17.00;99.90;;;;;;5075839;28;20191;-66
2021/07/15 06:55:15;;;;;;;33.67;17.73;;;17.10;99.90;;;;;;5076335;28;20187;-66
2021/07/15 06:57:44;;;;;;;36.10;18.47;;;17.10;99.90;;;;;;5072247;28;20189;-66
2021/07/15 07:00:16;;;;;;;37.97;18.00;;;17.10;99.90;;;;;;5072834;28;20230;-67
2021/07/15 07:02:46;;;;;;;36.40;17.53;;;17.10;99.90;;;;;;5074597;28;20182;-67
2021/07/15 07:05:16;;;;;;;40.37;16.67;;;17.20;99.90;;;;;;5074805;28;20178;-66
2021/07/15 07:07:46;;;;;;;38.07;16.10;;;17.20;99.90;;;;;;5077556;28;20208;-66
2021/07/15 07:10:15;;;;;;;33.37;16.10;;;17.20;99.90;;;;;;5076152;28;20189;-67
2021/07/15 07:12:44;;;;;;;37.67;16.43;;;17.20;99.90;;;;;;5075372;28;20192;-67
2021/07/15 07:15:16;;;;;;;35.30;15.23;;;17.20;99.90;;;;;;5077239;28;20190;-66
2021/07/15 07:17:45;;;;;;;33.53;15.17;;;17.20;99.90;;;;;;5073941;28;20253;-67
2021/07/15 07:20:15;;;;;;;32.00;14.80;;;17.30;99.90;;;;;;5075591;28;20197;-67
2021/07/15 07:22:44;;;;;;;30.30;14.77;;;17.30;99.90;;;;;;5076433;28;20184;-66
2021/07/15 07:25:14;;;;;;;25.20;14.00;;;17.30;99.90;;;;;;5076465;28;20192;-67
2021/07/15 07:27:43;;;;;;;30.73;12.57;;;17.30;99.90;;;;;;5074066;28;20467;-66
2021/07/15 07:30:16;;;;;;;26.80;12.17;;;17.40;99.90;;;;;;5076178;28;20191;-66
2021/07/15 07:32:46;;;;;;;28.37;11.80;;;17.40;99.90;;;;;;5075497;28;20449;-66
2021/07/15 07:35:15;;;;;;;26.57;11.43;;;17.40;99.90;;;;;;5075580;28;20202;-67
2021/07/15 07:37:44;;;;;;;25.53;11.40;;;17.50;99.90;;;;;;5072147;28;20194;-67
2021/07/15 07:40:14;;;;;;;27.43;12.60;;;17.50;99.90;;;;;;5075149;28;20187;-67
2021/07/15 07:42:43;;;;;;;30.50;12.13;;;17.50;99.90;;;;;;5071593;28;20193;-66
2021/07/15 07:45:12;;;;;;;28.57;12.63;;;17.60;99.90;;;;;;5068371;28;20254;-67
2021/07/15 07:47:42;;;;;;;32.33;13.20;;;17.60;99.90;;;;;;5076727;28;20455;-66
2021/07/15 07:50:13;;;;;;;26.10;12.93;;;17.60;99.90;;;;;;5078725;28;20180;-67
2021/07/15 07:52:42;;;;;;;33.17;12.77;;;17.60;99.90;;;;;;5075674;28;20200;-66
2021/07/15 07:55:12;;;;;;;32.73;12.43;;;17.60;99.90;;;;;;5073900;28;20187;-66
2021/07/15 07:57:41;;;;;;;29.33;12.20;;;17.70;99.90;;;;;;5074134;28;20234;-66
2021/07/15 08:00:12;;;;;;;22.33;11.57;;;17.70;99.90;;;;;;5075042;28;20407;-66
2021/07/15 08:02:43;;;;;;;28.00;12.20;;;17.80;99.90;;;;;;5075732;28;20226;-66
2021/07/15 08:05:13;;;;;;;26.77;11.40;;;17.80;99.90;;;;;;5077733;28;20369;-66
2021/07/15 08:07:41;;;;;;;27.90;11.97;;;17.80;99.90;;;;;;5081776;28;20236;-67
2021/07/15 08:10:12;;;;;;;23.20;11.70;;;17.80;99.90;;;;;;5076244;28;20184;-67
2021/07/15 08:12:41;;;;;;;30.30;12.13;;;17.80;99.90;;;;;;5082283;28;20181;-67
2021/07/15 08:15:10;;;;;;;30.10;12.50;;;17.80;99.90;;;;;;5078049;28;20444;-67
2021/07/15 08:17:39;;;;;;;27.13;11.43;;;17.80;99.90;;;;;;5076912;28;20192;-67
2021/07/15 08:20:11;;;;;;;27.73;11.33;;;17.90;99.90;;;;;;5078085;28;20714;-67
2021/07/15 08:22:40;;;;;;;26.17;10.70;;;18.10;99.90;;;;;;5070851;28;20271;-66
2021/07/15 08:25:10;;;;;;;23.00;11.50;;;18.20;99.90;;;;;;5074573;28;20195;-67
2021/07/15 08:27:38;;;;;;;25.63;11.50;;;18.30;99.90;;;;;;5075336;28;20390;-66
2021/07/15 08:30:10;;;;;;;28.57;11.93;;;18.30;99.90;;;;;;5077106;28;20231;-66
2021/07/15 08:32:39;;;;;;;29.27;11.37;;;18.40;99.90;;;;;;5078152;28;20183;-67
2021/07/15 08:35:26;;;;;;;28.10;11.40;;;18.40;99.90;;;;;;5073403;28;20219;-66
2021/07/15 08:37:55;;;;;;;25.50;10.43;;;18.50;99.90;;;;;;5072512;28;20219;-67
2021/07/15 08:40:24;;;;;;;19.97;10.50;;;18.50;99.90;;;;;;5076598;28;20196;-67
2021/07/15 08:42:53;;;;;;;21.77;10.50;;;18.50;99.90;;;;;;5077009;28;20176;-67
2021/07/15 08:45:23;;;;;;;30.40;10.87;;;18.50;99.90;;;;;;5074610;28;20184;-67
2021/07/15 08:47:52;;;;;;;26.80;10.63;;;18.50;99.90;;;;;;5078961;28;20388;-67
2021/07/15 08:50:21;;;;;;;24.17;10.87;;;18.40;99.90;;;;;;5077308;28;20203;-67
2021/07/15 08:52:53;;;;;;;26.43;11.60;;;18.30;99.90;;;;;;5080954;28;20336;-66
2021/07/15 08:58:08;;;;;;;20.80;10.50;;;18.30;99.90;;;;;;5075847;28;20180;-67
2021/07/15 09:00:36;;;;;;;23.20;10.67;;;18.30;99.90;;;;;;5076556;28;20266;-66
2021/07/15 09:03:06;;;;;;;21.97;11.40;;;18.30;99.90;;;;;;5076143;28;20249;-67
2021/07/15 09:05:34;;;;;;;24.67;10.90;;;18.30;99.90;;;;;;5075646;28;20196;-67
2021/07/15 09:08:04;;;;;;;23.23;11.27;;;18.30;99.90;;;;;;5078121;28;20196;-67
2021/07/15 09:10:33;;;;;;;21.00;11.67;;;18.30;99.90;;;;;;5079075;28;20253;-67
2021/07/15 09:13:03;;;;;;;25.00;11.67;;;18.30;99.90;;;;;;5079143;28;20207;-66
2021/07/15 09:15:31;;;;;;;25.13;11.87;;;18.30;99.90;;;;;;5076153;28;20234;-66
2021/07/15 09:18:00;;;;;;;18.70;10.97;;;18.30;99.90;;;;;;5075863;28;20429;-67
2021/07/15 09:20:30;;;;;;;22.43;11.60;;;18.30;99.90;;;;;;5075441;28;20200;-67
2021/07/15 09:23:00;;;;;;;21.20;11.10;;;18.40;99.90;;;;;;5078197;28;20185;-66
2021/07/15 09:25:55;;;;;;;24.37;11.50;;;18.50;99.90;;;;;;5077788;28;20621;-67
2021/07/15 09:28:32;;;;;;;20.60;10.90;;;18.50;99.90;;;;;;5075045;28;20185;-66
2021/07/15 09:31:20;;;;;;;21.00;11.87;;;18.40;99.90;;;;;;5077639;28;20377;-67
2021/07/15 09:33:49;;;;;;;23.33;11.80;;;18.40;99.90;;;;;;5075966;28;20489;-66
2021/07/15 09:36:24;;;;;;;20.33;11.70;;;18.40;99.90;;;;;;5072737;28;20196;-66
2021/07/15 09:38:52;;;;;;;26.07;11.77;;;18.40;99.90;;;;;;5076875;28;20180;-67
2021/07/15 09:41:22;;;;;;;24.90;12.03;;;18.40;99.90;;;;;;5075119;28;20336;-66
2021/07/15 09:43:50;;;;;;;22.63;11.47;;;18.40;99.90;;;;;;5073906;28;20187;-66
2021/07/15 09:46:23;;;;;;;22.17;12.23;;;18.40;99.90;;;;;;5075999;28;20426;-66
2021/07/15 09:49:04;;;;;;;24.03;11.63;;;18.50;99.90;;;;;;5073318;28;20481;-66
2021/07/15 09:51:41;;;;;;;28.00;12.53;;;18.40;99.90;;;;;;5073747;28;20187;-66
2021/07/15 09:54:10;;;;;;;22.47;12.17;;;18.50;99.90;;;;;;5069819;28;20199;-66
2021/07/15 09:56:46;;;;;;;24.27;12.37;;;18.50;99.90;;;;;;5072785;28;20195;-67
2021/07/15 09:59:15;;;;;;;28.50;12.17;;;18.40;99.90;;;;;;5073712;28;20180;-65
2021/07/15 10:01:47;;;;;;;27.57;11.73;;;18.40;99.90;;;;;;5075113;28;20187;-66
2021/07/15 10:04:26;;;;;;;22.73;10.77;;;18.30;99.90;;;;;;5069869;28;20279;-67
2021/07/15 10:06:57;;;;;;;20.97;11.70;;;18.30;99.90;;;;;;5075177;28;20251;-66
2021/07/15 10:09:30;;;;;;;20.70;11.40;;;18.40;99.90;;;;;;5073270;28;20242;-66
2021/07/15 10:12:00;;;;;;;31.73;12.53;;;18.40;99.90;;;;;;5073224;28;20210;-66
2021/07/15 10:14:37;;;;;;;19.97;10.73;;;18.40;99.90;;;;;;5075542;28;20276;-66
2021/07/15 10:17:06;;;;;;;17.43;10.10;;;18.40;99.90;;;;;;5075706;28;20384;-67
2021/07/15 10:19:35;;;;;;;21.60;10.53;;;18.40;99.90;;;;;;5073465;28;20197;-66
2021/07/15 10:22:07;;;;;;;21.70;10.90;;;18.40;99.90;;;;;;5069562;28;20187;-67
2021/07/15 10:24:36;;;;;;;19.53;10.93;;;18.30;99.90;;;;;;5069856;28;20190;-65
2021/07/15 10:27:10;;;;;;;19.93;10.53;;;18.20;99.90;;;;;;5069489;28;20460;-67
2021/07/15 10:29:40;;;;;;;18.57;10.57;;;18.20;99.90;;;;;;5076283;28;20510;-67
2021/07/15 10:32:11;;;;;;;27.87;10.77;;;18.30;99.90;;;;;;5071140;28;20179;-67
2021/07/15 10:34:41;;;;;;;22.33;11.27;;;18.30;99.90;;;;;;5075021;28;20235;-66
2021/07/15 10:37:09;;;;;;;25.80;11.00;;;18.20;99.90;;;;;;5069426;28;20184;-67
2021/07/15 10:39:39;;;;;;;24.90;11.37;;;18.20;99.90;;;;;;5074155;28;20211;-67
2021/07/15 10:42:08;;;;;;;23.23;11.80;;;18.30;99.90;;;;;;5074844;28;20190;-67
2021/07/15 10:44:37;;;;;;;22.97;11.40;;;18.40;99.90;;;;;;5075101;28;20425;-67
2021/07/15 10:47:06;;;;;;;19.70;11.87;;;18.30;99.90;;;;;;5054237;28;20617;-67
2021/07/15 10:49:37;;;;;;;24.20;11.80;;;18.30;99.90;;;;;;5072135;28;20398;-67
2021/07/15 10:52:09;;;;;;;20.73;10.83;;;18.30;99.90;;;;;;5072893;28;20187;-67
2021/07/15 10:54:42;;;;;;;20.23;11.33;;;18.30;99.90;;;;;;5075441;28;20258;-66
2021/07/15 10:57:12;;;;;;;19.63;11.03;;;18.40;99.90;;;;;;5073748;28;20184;-67
2021/07/15 10:59:40;;;;;;;19.90;11.30;;;18.30;99.90;;;;;;5071390;28;20514;-66
2021/07/15 11:02:22;;;;;;;26.83;11.87;;;18.40;99.90;;;;;;5072457;28;20230;-66
2021/07/15 11:04:51;;;;;;;21.73;11.80;;;18.40;99.90;;;;;;5073296;28;20187;-67
2021/07/15 11:07:27;;;;;;;17.17;10.97;;;18.30;99.90;;;;;;5076977;28;20176;-66
2021/07/15 11:10:16;;;;;;;24.03;12.37;;;18.30;99.90;;;;;;5075242;28;20600;-66
2021/07/15 11:12:57;;;;;;;23.87;11.73;;;18.20;99.90;;;;;;5072131;28;20192;-66
2021/07/15 11:15:46;;;;;;;27.73;12.47;;;18.20;99.90;;;;;;5077536;28;20183;-66
2021/07/15 11:18:57;;;;;;;22.23;12.13;;;18.10;99.90;;;;;;5074649;28;20261;-66
2021/07/15 11:21:36;;;;;;;24.07;12.13;;;18.20;99.90;;;;;;4996374;28;20188;-67
2021/07/15 11:24:44;;;;;;;27.50;11.73;;;18.10;99.90;;;;;;5073228;28;20224;-66
2021/07/15 11:27:37;;;;;;;20.47;10.70;;;18.10;99.90;;;;;;5017140;28;20442;-66
2021/07/15 11:30:30;;;;;;;17.63;10.83;;;18.20;99.90;;;;;;5092195;28;20265;-67
2021/07/15 11:33:34;;;;;;;20.80;9.93;;;18.10;99.90;;;;;;5071466;28;20219;-67
2021/07/15 11:36:26;;;;;;;18.37;10.37;;;18.10;99.90;;;;;;5077242;28;20186;-67
2021/07/15 11:38:58;;;;;;;21.57;10.60;;;18.20;99.90;;;;;;5071974;28;20486;-67
2021/07/15 11:41:42;;;;;;;21.00;9.87;;;18.20;99.90;;;;;;5075987;28;20272;-67
2021/07/15 11:44:13;;;;;;;17.33;9.60;;;18.10;99.90;;;;;;5078594;28;20188;-66
2021/07/15 11:46:46;;;;;;;17.33;9.60;;;18.10;99.90;;;;;;5079796;28;20169;-66
2021/07/15 11:49:22;;;;;;;19.27;9.50;;;18.10;99.90;;;;;;5081221;28;20191;-67
2021/07/15 11:52:03;;;;;;;22.07;9.37;;;18.10;99.90;;;;;;5078330;28;20221;-66
2021/07/15 11:54:44;;;;;;;17.90;8.93;;;18.10;99.90;;;;;;5074472;28;20459;-67
2021/07/15 11:57:27;;;;;;;14.97;9.13;;;18.10;99.90;;;;;;5076222;28;20239;-67
2021/07/15 12:00:12;;;;;;;13.67;8.43;;;18.10;99.90;;;;;;5079775;28;20324;-67
2021/07/15 12:03:02;;;;;;;18.03;8.40;;;18.10;99.90;;;;;;5078434;28;20206;-67
2021/07/15 12:05:32;;;;;;;17.97;8.37;;;18.10;99.90;;;;;;5077174;28;20199;-66
2021/07/15 12:08:13;;;;;;;18.23;8.13;;;18.10;99.90;;;;;;5075931;28;20241;-67
2021/07/15 12:10:43;;;;;;;17.40;8.83;;;18.10;99.90;;;;;;5074797;28;20246;-66
2021/07/15 12:13:13;;;;;;;21.87;8.40;;;18.10;99.90;;;;;;5076050;28;20184;-66
2021/07/15 12:15:44;;;;;;;15.33;8.53;;;18.10;99.90;;;;;;5073048;28;20332;-66
2021/07/15 12:18:15;;;;;;;20.20;8.40;;;18.20;99.90;;;;;;5074311;28;20527;-67
2021/07/15 12:20:45;;;;;;;17.40;8.80;;;18.20;99.90;;;;;;5074435;28;20451;-67
2021/07/15 12:23:19;;;;;;;16.20;8.60;;;18.20;99.90;;;;;;5077177;28;20492;-66
2021/07/15 12:25:49;;;;;;;18.83;9.70;;;18.10;99.90;;;;;;5074348;28;20176;-66
2021/07/15 12:28:19;;;;;;;17.90;9.37;;;18.10;99.90;;;;;;5079129;28;20187;-66
2021/07/15 12:30:53;;;;;;;20.60;9.13;;;18.20;99.90;;;;;;5074934;28;20235;-66
2021/07/15 12:33:34;;;;;;;18.13;10.30;;;18.20;99.90;;;;;;5073476;28;20222;-67
2021/07/15 12:36:10;;;;;;;20.80;9.83;;;18.20;99.90;;;;;;5074351;28;20391;-66
2021/07/15 12:38:38;;;;;;;17.33;9.03;;;18.30;99.90;;;;;;5075644;28;20237;-66
2021/07/15 12:41:13;;;;;;;19.37;9.50;;;18.30;99.90;;;;;;5074934;28;20322;-66
2021/07/15 12:43:51;;;;;;;16.57;8.83;;;18.40;99.90;;;;;;5090366;28;20180;-66
2021/07/15 12:46:22;;;;;;;18.83;9.37;;;18.30;99.90;;;;;;5070138;28;20356;-67
2021/07/15 12:48:53;;;;;;;15.13;8.87;;;18.20;99.90;;;;;;5078144;28;20220;-67
2021/07/15 12:51:23;;;;;;;15.53;8.83;;;18.20;99.90;;;;;;5073441;28;20212;-66
2021/07/15 12:53:53;;;;;;;18.97;8.97;;;18.20;99.90;;;;;;5073602;28;20306;-67
2021/07/15 12:56:23;;;;;;;17.07;9.03;;;18.30;99.90;;;;;;5078617;28;20352;-66